Time;durP1;ratioP1;P1;durP2;ratioP2;P2;SDS_P1;SDS_P2;PMS_P1;PMS_P2;Temp;Humidity;BMP_temperature;BMP_pressure;BME280_temperature;BME280_humidity;BME280_pressure;Samples;Min_cycle;Max_cycle;Signal;HPM_P1;HPM_P2
2023/12/22 00:02:25;;;;;;;4.88;1.10;;;25.40;94.70;;;;;;5027340;28;20101;-67
2023/12/22 00:04:52;;;;;;;3.80;1.38;;;25.70;94.80;;;;;;5030594;28;20546;-66
2023/12/22 00:07:20;;;;;;;5.78;1.55;;;25.80;95.00;;;;;;5026270;28;20029;-66
2023/12/22 00:09:47;;;;;;;6.07;1.52;;;25.40;94.10;;;;;;5024691;28;20037;-67
2023/12/22 00:12:14;;;;;;;9.45;1.77;;;24.90;94.80;;;;;;5033958;28;20051;-66
2023/12/22 00:14:44;;;;;;;7.80;1.63;;;25.00;94.30;;;;;;5021296;28;20112;-65
2023/12/22 00:17:11;;;;;;;6.95;1.60;;;25.00;95.00;;;;;;5022737;28;20036;-64
2023/12/22 00:19:38;;;;;;;5.13;1.48;;;25.30;94.40;;;;;;5026823;28;20017;-64
2023/12/22 00:22:05;;;;;;;6.13;1.58;;;25.60;94.20;;;;;;5026339;28;20018;-65
2023/12/22 00:24:32;;;;;;;5.50;1.13;;;25.50;94.10;;;;;;5024298;28;20053;-65
2023/12/22 00:27:00;;;;;;;5.30;2.20;;;25.70;94.70;;;;;;5018274;28;20034;-65
2023/12/22 00:29:28;;;;;;;4.85;1.25;;;25.50;94.90;;;;;;5024562;28;20022;-65
2023/12/22 00:31:55;;;;;;;7.07;1.63;;;25.50;93.80;;;;;;5023693;28;20224;-65
2023/12/22 00:34:23;;;;;;;5.95;1.40;;;26.00;94.60;;;;;;5026543;28;20073;-64
2023/12/22 00:36:50;;;;;;;5.70;1.50;;;26.50;93.80;;;;;;5027161;28;20037;-66
2023/12/22 00:39:17;;;;;;;6.25;1.50;;;26.90;93.00;;;;;;5031582;28;20052;-66
2023/12/22 00:41:44;;;;;;;4.32;1.35;;;27.10;92.40;;;;;;5022221;28;20029;-65
2023/12/22 00:44:11;;;;;;;6.43;1.60;;;26.80;92.40;;;;;;5019147;28;20049;-65
2023/12/22 00:46:38;;;;;;;4.03;1.42;;;26.70;93.00;;;;;;5023658;28;20029;-66
2023/12/22 00:49:05;;;;;;;4.35;1.45;;;26.50;91.60;;;;;;5021360;28;20064;-67
2023/12/22 00:51:32;;;;;;;3.90;1.15;;;26.40;92.30;;;;;;5021468;28;20435;-65
2023/12/22 00:53:59;;;;;;;2.63;1.23;;;26.60;92.20;;;;;;5023534;28;20108;-65
2023/12/22 00:56:26;;;;;;;5.10;1.45;;;26.60;92.10;;;;;;5021572;28;20030;-65
2023/12/22 00:58:54;;;;;;;3.30;1.08;;;26.90;91.70;;;;;;5022435;28;20017;-66
2023/12/22 01:01:21;;;;;;;6.00;1.13;;;27.10;91.80;;;;;;5033741;28;20402;-65
2023/12/22 01:03:48;;;;;;;6.22;1.38;;;27.60;92.60;;;;;;5022816;28;20043;-64
2023/12/22 01:06:15;;;;;;;2.85;1.20;;;27.70;91.30;;;;;;5026741;28;20026;-65
2023/12/22 01:08:42;;;;;;;3.35;1.10;;;27.60;90.90;;;;;;5026736;28;20283;-64
2023/12/22 01:11:09;;;;;;;6.82;1.73;;;27.10;91.50;;;;;;5024389;28;20025;-67
2023/12/22 01:13:36;;;;;;;2.90;1.15;;;27.20;90.90;;;;;;5026378;28;20029;-66
2023/12/22 01:16:03;;;;;;;4.78;1.30;;;27.30;91.60;;;;;;5025314;28;20025;-66
2023/12/22 01:18:31;;;;;;;4.47;1.05;;;27.70;91.30;;;;;;5022839;28;20021;-67
2023/12/22 01:20:58;;;;;;;5.00;1.48;;;28.20;91.30;;;;;;5023472;28;20029;-66
2023/12/22 01:23:25;;;;;;;3.63;0.95;;;28.60;90.10;;;;;;5026219;28;20018;-67
2023/12/22 01:25:53;;;;;;;3.92;1.20;;;28.30;90.40;;;;;;5024927;28;20043;-64
2023/12/22 01:28:20;;;;;;;6.43;1.17;;;28.20;90.30;;;;;;5027367;28;20029;-64
2023/12/22 01:30:47;;;;;;;4.38;1.50;;;28.40;90.70;;;;;;5025676;28;20034;-68
2023/12/22 01:33:14;;;;;;;4.45;1.30;;;28.60;90.10;;;;;;5021792;28;20136;-64
2023/12/22 01:35:41;;;;;;;7.85;1.80;;;28.80;89.50;;;;;;5026216;28;20037;-67
2023/12/22 01:38:08;;;;;;;4.93;1.30;;;29.00;89.30;;;;;;5028362;28;20470;-66
2023/12/22 01:40:36;;;;;;;3.38;1.20;;;29.50;89.60;;;;;;5025062;28;20052;-65
2023/12/22 01:43:03;;;;;;;7.70;1.50;;;29.40;90.70;;;;;;5024662;28;20124;-64
2023/12/22 01:45:30;;;;;;;2.83;1.00;;;29.20;88.30;;;;;;5023481;28;20018;-66
2023/12/22 01:47:57;;;;;;;4.90;1.02;;;29.30;87.40;;;;;;5021638;28;20030;-64
2023/12/22 01:50:25;;;;;;;6.60;1.38;;;29.50;87.50;;;;;;5026145;28;20036;-67
2023/12/22 01:52:53;;;;;;;3.20;0.90;;;29.50;89.50;;;;;;5022598;28;20037;-64
2023/12/22 01:55:20;;;;;;;5.30;1.30;;;29.40;89.20;;;;;;5020550;28;20033;-68
2023/12/22 01:57:49;;;;;;;5.07;1.25;;;29.00;90.10;;;;;;5018282;28;20377;-67
2023/12/22 02:00:16;;;;;;;7.82;1.83;;;28.50;89.00;;;;;;5023943;28;20025;-65
2023/12/22 02:02:44;;;;;;;6.15;2.35;;;28.80;89.80;;;;;;5020174;28;20022;-65
2023/12/22 02:05:14;;;;;;;3.80;1.45;;;28.10;89.20;;;;;;5025375;28;20028;-67
2023/12/22 02:07:44;;;;;;;4.97;1.13;;;27.70;90.10;;;;;;5018184;28;20025;-63
2023/12/22 02:10:11;;;;;;;6.32;1.23;;;27.30;90.20;;;;;;5021799;28;20049;-61
2023/12/22 02:12:38;;;;;;;5.50;1.58;;;27.00;90.80;;;;;;5012022;28;20068;-70
2023/12/22 02:15:06;;;;;;;2.88;1.15;;;27.80;91.90;;;;;;5016287;28;20029;-67
2023/12/22 02:17:39;;;;;;;3.47;1.40;;;28.60;91.00;;;;;;5018389;28;20028;-66
2023/12/22 02:20:08;;;;;;;4.20;1.00;;;29.40;90.20;;;;;;5018230;28;20056;-64
2023/12/22 02:22:35;;;;;;;7.72;1.67;;;30.10;88.20;;;;;;5016632;28;20025;-70
2023/12/22 02:25:02;;;;;;;3.95;1.50;;;30.50;86.80;;;;;;5019090;28;20087;-65
2023/12/22 02:28:02;;;;;;;7.15;1.50;;;30.30;87.00;;;;;;5018382;28;21021;-68
2023/12/22 02:30:49;;;;;;;3.47;1.55;;;30.50;88.00;;;;;;5022600;28;20530;-73
2023/12/22 02:33:18;;;;;;;4.55;1.20;;;31.00;86.60;;;;;;5022018;28;20038;-62
2023/12/22 02:35:46;;;;;;;5.30;1.50;;;30.90;86.90;;;;;;5018882;28;20021;-64
2023/12/22 02:38:14;;;;;;;4.70;1.27;;;31.30;87.20;;;;;;5019746;28;20443;-72
2023/12/22 02:40:42;;;;;;;6.20;1.38;;;31.20;86.00;;;;;;5019510;28;20036;-67
2023/12/22 02:43:09;;;;;;;2.78;1.20;;;30.80;85.10;;;;;;5011438;28;20041;-65
2023/12/22 02:45:37;;;;;;;3.70;1.73;;;30.60;86.70;;;;;;5021058;28;20025;-62
2023/12/22 02:48:04;;;;;;;5.47;1.70;;;30.40;89.30;;;;;;5016231;28;20859;-62
2023/12/22 02:50:31;;;;;;;8.90;2.65;;;30.70;91.10;;;;;;5019701;28;20526;-67
2023/12/22 02:52:58;;;;;;;4.78;1.55;;;31.10;89.60;;;;;;5022707;28;20032;-62
2023/12/22 02:55:25;;;;;;;5.55;3.10;;;31.30;89.30;;;;;;5020002;28;20479;-67
2023/12/22 02:57:52;;;;;;;5.40;2.30;;;31.00;88.70;;;;;;5021496;28;20604;-65
2023/12/22 03:00:20;;;;;;;7.60;3.03;;;31.30;89.00;;;;;;5020122;28;20049;-69
2023/12/22 03:02:47;;;;;;;9.77;2.45;;;31.50;88.90;;;;;;5019990;28;20029;-67
2023/12/22 03:05:14;;;;;;;9.77;2.17;;;30.50;89.30;;;;;;5017427;28;20033;-66
2023/12/22 03:07:41;;;;;;;7.55;1.88;;;30.10;89.50;;;;;;5021025;28;20401;-64
2023/12/22 03:10:08;;;;;;;5.65;1.98;;;30.10;90.10;;;;;;5023560;28;20029;-62
2023/12/22 03:12:35;;;;;;;5.85;1.77;;;29.90;90.50;;;;;;5022034;28;20108;-67
2023/12/22 03:15:02;;;;;;;5.70;1.55;;;29.90;90.40;;;;;;5021539;28;20370;-68
2023/12/22 03:17:29;;;;;;;7.07;1.75;;;29.90;89.10;;;;;;5023491;28;20121;-66
2023/12/22 03:19:57;;;;;;;3.50;1.88;;;29.20;89.60;;;;;;5020101;28;20506;-64
2023/12/22 03:22:24;;;;;;;4.93;1.55;;;28.80;91.20;;;;;;5022051;28;20025;-65
2023/12/22 03:24:51;;;;;;;6.53;1.98;;;29.30;90.20;;;;;;5022541;28;20517;-64
2023/12/22 03:27:20;;;;;;;4.57;1.25;;;30.10;90.70;;;;;;5022991;28;20414;-65
2023/12/22 03:29:47;;;;;;;6.07;1.58;;;30.90;89.40;;;;;;5020729;28;20028;-63
2023/12/22 03:32:14;;;;;;;6.47;1.60;;;31.30;89.10;;;;;;5020025;28;20059;-64
2023/12/22 03:34:41;;;;;;;4.47;1.35;;;31.10;87.70;;;;;;5022327;28;20093;-64
2023/12/22 03:37:08;;;;;;;9.00;1.63;;;30.50;86.70;;;;;;5022514;28;20567;-63
2023/12/22 03:39:35;;;;;;;5.05;1.38;;;30.00;88.20;;;;;;5022184;28;20021;-66
2023/12/22 03:42:02;;;;;;;6.70;1.67;;;30.20;87.40;;;;;;5018622;28;20032;-66
2023/12/22 03:44:29;;;;;;;8.18;2.35;;;30.90;88.30;;;;;;5019328;28;20029;-62
2023/12/22 03:46:56;;;;;;;7.07;1.55;;;31.10;88.40;;;;;;5020366;28;20042;-66
2023/12/22 03:49:23;;;;;;;6.03;1.60;;;31.60;86.40;;;;;;5020181;28;20037;-65
2023/12/22 03:51:50;;;;;;;4.93;1.95;;;31.30;86.50;;;;;;5021055;28;20515;-64
2023/12/22 03:54:17;;;;;;;4.95;1.20;;;30.80;87.30;;;;;;5035608;28;20029;-65
2023/12/22 03:56:45;;;;;;;6.45;2.20;;;30.00;87.10;;;;;;5020545;28;20547;-69
2023/12/22 03:59:13;;;;;;;5.15;1.27;;;30.00;87.10;;;;;;5021140;28;20040;-63
2023/12/22 04:01:40;;;;;;;5.68;1.70;;;30.10;87.80;;;;;;5021431;28;20165;-65
2023/12/22 04:04:07;;;;;;;4.65;1.42;;;30.10;88.60;;;;;;5021388;28;20538;-64
2023/12/22 04:06:38;;;;;;;5.10;1.35;;;30.20;87.70;;;;;;5021402;28;20068;-64
2023/12/22 04:09:05;;;;;;;6.68;1.67;;;30.50;87.10;;;;;;5019962;28;20421;-65
2023/12/22 04:11:34;;;;;;;5.13;1.42;;;30.60;85.30;;;;;;5019831;28;20083;-65
2023/12/22 04:14:01;;;;;;;5.00;1.27;;;30.10;86.50;;;;;;5020267;28;20108;-65
2023/12/22 04:16:28;;;;;;;5.00;1.30;;;30.00;87.40;;;;;;5019289;28;20030;-66
2023/12/22 04:18:56;;;;;;;5.47;1.38;;;30.00;86.70;;;;;;5016621;28;20032;-68
2023/12/22 04:21:23;;;;;;;8.27;4.38;;;29.50;87.40;;;;;;5020759;28;20108;-65
2023/12/22 04:23:50;;;;;;;8.88;1.80;;;29.80;88.60;;;;;;5019862;28;20021;-69
2023/12/22 04:26:17;;;;;;;5.85;1.60;;;30.60;85.60;;;;;;5020299;28;20247;-64
2023/12/22 04:28:44;;;;;;;5.00;1.63;;;30.50;86.40;;;;;;5018901;28;20120;-67
2023/12/22 04:31:11;;;;;;;9.27;1.88;;;30.40;88.10;;;;;;5019670;28;20026;-66
2023/12/22 04:33:38;;;;;;;8.63;1.73;;;30.30;86.30;;;;;;5019376;28;20053;-63
2023/12/22 04:36:06;;;;;;;3.15;1.13;;;30.30;86.00;;;;;;5019282;28;20034;-64
2023/12/22 04:38:33;;;;;;;3.78;1.50;;;29.60;87.30;;;;;;5020014;28;20067;-67
2023/12/22 04:41:00;;;;;;;3.97;1.42;;;29.50;87.30;;;;;;5019118;28;20065;-66
2023/12/22 04:43:27;;;;;;;7.13;1.92;;;30.10;89.60;;;;;;5019056;28;20071;-65
2023/12/22 04:45:54;;;;;;;6.38;1.85;;;30.50;86.00;;;;;;5020190;28;20040;-63
2023/12/22 04:48:21;;;;;;;5.20;1.33;;;30.50;88.50;;;;;;5021214;28;20106;-64
2023/12/22 04:50:48;;;;;;;3.72;1.30;;;31.20;87.30;;;;;;5021566;28;20034;-64
2023/12/22 04:53:15;;;;;;;5.97;1.83;;;31.00;84.90;;;;;;5020270;28;20108;-63
2023/12/22 04:55:42;;;;;;;6.53;2.03;;;30.60;86.20;;;;;;5018658;28;20377;-65
2023/12/22 04:58:09;;;;;;;5.15;1.77;;;30.40;85.40;;;;;;5019237;28;20716;-64
2023/12/22 05:00:36;;;;;;;5.85;1.33;;;29.50;86.40;;;;;;5019795;28;20022;-65
2023/12/22 05:03:04;;;;;;;3.13;1.10;;;29.00;87.10;;;;;;5020082;28;20041;-62
2023/12/22 05:05:31;;;;;;;5.25;1.45;;;28.90;86.80;;;;;;5019869;28;20456;-64
2023/12/22 05:07:58;;;;;;;7.32;1.25;;;29.20;87.80;;;;;;5018982;28;20029;-62
2023/12/22 05:10:26;;;;;;;5.00;1.35;;;29.00;86.40;;;;;;5018725;28;20034;-62
2023/12/22 05:12:54;;;;;;;5.35;1.40;;;29.10;86.50;;;;;;5017971;28;20395;-63
2023/12/22 05:15:21;;;;;;;4.82;1.20;;;28.50;87.10;;;;;;5016609;28;20422;-64
2023/12/22 05:17:48;;;;;;;3.90;1.25;;;29.00;86.40;;;;;;5019334;28;20098;-65
2023/12/22 05:20:15;;;;;;;4.55;1.20;;;28.60;86.80;;;;;;5018046;28;20097;-64
2023/12/22 05:22:42;;;;;;;6.28;1.77;;;28.50;87.70;;;;;;5018266;28;20032;-62
2023/12/22 05:25:10;;;;;;;3.75;1.10;;;28.50;86.80;;;;;;5019391;28;20021;-64
2023/12/22 05:27:37;;;;;;;6.43;1.08;;;28.30;86.90;;;;;;5019906;28;20109;-64
2023/12/22 05:30:05;;;;;;;4.32;1.60;;;28.40;89.10;;;;;;5018843;28;20350;-64
2023/12/22 05:32:32;;;;;;;2.63;1.10;;;29.10;88.20;;;;;;5016776;28;20061;-65
2023/12/22 05:35:00;;;;;;;5.45;1.40;;;29.00;86.50;;;;;;5019036;28;20025;-65
2023/12/22 05:37:27;;;;;;;2.95;1.17;;;29.20;86.50;;;;;;5019653;28;21464;-64
2023/12/22 05:39:54;;;;;;;5.65;1.55;;;29.30;87.30;;;;;;5019006;28;20044;-64
2023/12/22 05:42:21;;;;;;;4.60;1.17;;;29.20;87.40;;;;;;5020378;28;20018;-64
2023/12/22 05:44:49;;;;;;;4.18;1.20;;;29.60;88.20;;;;;;5018886;28;20250;-64
2023/12/22 05:47:19;;;;;;;5.22;1.13;;;29.90;88.50;;;;;;5018928;28;20400;-65
2023/12/22 05:49:47;;;;;;;7.38;1.50;;;30.00;86.60;;;;;;5017918;28;20165;-63
2023/12/22 05:52:14;;;;;;;7.97;1.80;;;29.90;87.80;;;;;;5019728;28;20041;-64
2023/12/22 05:54:41;;;;;;;5.82;1.42;;;30.00;89.80;;;;;;5020005;28;20048;-64
2023/12/22 05:57:08;;;;;;;5.13;1.48;;;29.80;89.00;;;;;;5018516;28;20435;-64
2023/12/22 05:59:35;;;;;;;4.50;1.48;;;29.60;89.80;;;;;;5018633;28;20025;-62
2023/12/22 06:02:03;;;;;;;3.47;1.10;;;29.60;88.60;;;;;;5017338;28;20091;-63
2023/12/22 06:04:30;;;;;;;7.93;1.50;;;29.60;88.10;;;;;;5019157;28;20036;-63
2023/12/22 06:06:57;;;;;;;3.20;1.15;;;29.00;88.70;;;;;;5019029;28;20028;-62
2023/12/22 06:09:25;;;;;;;5.10;1.48;;;29.40;88.40;;;;;;5019435;28;20029;-62
2023/12/22 06:11:52;;;;;;;4.13;1.40;;;29.50;86.50;;;;;;5020472;28;20026;-63
2023/12/22 06:14:19;;;;;;;7.07;1.42;;;29.20;88.00;;;;;;5017604;28;20429;-62
2023/12/22 06:16:46;;;;;;;3.35;1.50;;;29.50;86.50;;;;;;5018500;28;20105;-63
2023/12/22 06:19:13;;;;;;;4.20;1.40;;;29.20;87.00;;;;;;5013056;28;20071;-62
2023/12/22 06:21:46;;;;;;;4.90;1.67;;;29.40;87.30;;;;;;5014903;28;20416;-66
2023/12/22 06:24:13;;;;;;;8.07;2.10;;;29.50;88.00;;;;;;5016591;28;20021;-69
2023/12/22 06:26:40;;;;;;;3.88;1.58;;;28.70;87.90;;;;;;5016378;28;20560;-69
2023/12/22 06:29:07;;;;;;;3.40;1.60;;;28.90;89.10;;;;;;5017899;28;20122;-66
2023/12/22 06:31:34;;;;;;;5.72;1.38;;;28.90;88.80;;;;;;5016421;28;20459;-69
2023/12/22 06:34:02;;;;;;;6.03;1.60;;;28.10;89.00;;;;;;5015715;28;20550;-64
2023/12/22 06:36:32;;;;;;;4.78;1.27;;;27.70;88.60;;;;;;5016614;28;20078;-65
2023/12/22 06:38:59;;;;;;;2.38;1.00;;;26.90;89.20;;;;;;5017286;28;20083;-65
2023/12/22 06:41:31;;;;;;;6.13;2.20;;;28.20;89.70;;;;;;5018782;28;20029;-67
2023/12/22 06:44:02;;;;;;;6.07;1.10;;;30.00;89.30;;;;;;5017103;28;20540;-65
2023/12/22 06:46:30;;;;;;;4.55;1.60;;;30.40;85.30;;;;;;5018022;28;20026;-64
2023/12/22 06:48:57;;;;;;;3.90;1.40;;;29.40;88.00;;;;;;5017693;28;20040;-67
2023/12/22 06:51:36;;;;;;;3.17;1.15;;;29.30;88.40;;;;;;5018127;28;20086;-68
2023/12/22 06:54:04;;;;;;;4.60;1.40;;;30.50;87.60;;;;;;5016779;28;20038;-68
2023/12/22 06:56:34;;;;;;;4.82;1.60;;;31.50;85.00;;;;;;5015798;28;20061;-62
2023/12/22 06:59:01;;;;;;;6.63;2.03;;;31.30;85.40;;;;;;5015995;28;20032;-62
2023/12/22 07:01:29;;;;;;;5.38;1.52;;;31.30;85.70;;;;;;5032889;28;20125;-63
2023/12/22 07:03:56;;;;;;;3.58;1.05;;;30.70;86.30;;;;;;5014779;28;20025;-64
2023/12/22 07:06:28;;;;;;;4.10;1.05;;;31.20;84.90;;;;;;5016544;28;20171;-64
2023/12/22 07:09:17;;;;;;;6.82;2.13;;;31.90;84.40;;;;;;5016745;28;20029;-65
2023/12/22 07:11:54;;;;;;;6.63;1.30;;;31.70;86.30;;;;;;5015967;28;20083;-64
2023/12/22 07:14:21;;;;;;;4.13;1.30;;;31.60;84.60;;;;;;5016214;28;20033;-65
2023/12/22 07:16:48;;;;;;;3.92;1.00;;;30.70;85.70;;;;;;5013467;28;20965;-67
2023/12/22 07:19:15;;;;;;;5.13;1.25;;;30.90;85.90;;;;;;5015982;28;20068;-68
2023/12/22 07:21:42;;;;;;;4.97;1.20;;;31.00;85.30;;;;;;5017264;28;20037;-67
2023/12/22 07:24:09;;;;;;;4.53;1.38;;;31.00;86.00;;;;;;5016567;28;20021;-67
2023/12/22 07:26:36;;;;;;;5.35;1.35;;;31.00;85.10;;;;;;5015673;28;20039;-68
2023/12/22 07:29:03;;;;;;;5.18;1.50;;;30.20;87.30;;;;;;5016196;28;20122;-67
2023/12/22 07:31:31;;;;;;;7.10;1.63;;;31.00;85.50;;;;;;5015686;28;20834;-70
2023/12/22 07:33:58;;;;;;;3.92;1.30;;;30.90;86.30;;;;;;5016149;28;20411;-65
2023/12/22 07:36:25;;;;;;;3.90;1.40;;;31.70;85.50;;;;;;5016013;28;20040;-66
2023/12/22 07:38:52;;;;;;;3.72;1.50;;;32.30;86.00;;;;;;5016458;28;20033;-65
2023/12/22 07:41:19;;;;;;;2.40;1.17;;;31.90;85.00;;;;;;5015728;28;20026;-70
2023/12/22 07:43:46;;;;;;;4.43;1.70;;;31.30;86.00;;;;;;5016143;28;20056;-65
2023/12/22 07:46:23;;;;;;;4.70;1.35;;;30.30;86.30;;;;;;5013855;28;20026;-65
2023/12/22 07:48:50;;;;;;;3.95;1.55;;;30.30;86.40;;;;;;5015995;28;21104;-64
2023/12/22 07:51:17;;;;;;;5.22;1.50;;;30.40;86.30;;;;;;5016773;28;20167;-70
2023/12/22 07:53:44;;;;;;;7.43;3.67;;;30.10;87.20;;;;;;5015989;28;20065;-64
2023/12/22 07:56:12;;;;;;;8.15;1.60;;;30.30;87.60;;;;;;5016984;28;20060;-69
2023/12/22 07:58:39;;;;;;;3.72;1.60;;;29.90;88.10;;;;;;5019048;28;20033;-65
2023/12/22 08:01:06;;;;;;;4.60;1.60;;;29.30;89.20;;;;;;5019446;28;20029;-67
2023/12/22 08:03:34;;;;;;;4.80;1.50;;;28.40;91.00;;;;;;5019442;28;20519;-66
2023/12/22 08:06:01;;;;;;;5.03;1.58;;;28.20;90.70;;;;;;5020403;28;20025;-64
2023/12/22 08:08:28;;;;;;;7.07;1.63;;;27.90;91.10;;;;;;5017854;28;20342;-66
2023/12/22 08:10:56;;;;;;;5.88;1.88;;;28.00;91.20;;;;;;5020044;28;20064;-67
2023/12/22 08:13:23;;;;;;;5.80;1.50;;;27.70;91.10;;;;;;5020415;28;20538;-65
2023/12/22 08:15:50;;;;;;;4.45;1.80;;;26.80;91.80;;;;;;5015618;28;20025;-70
2023/12/22 08:18:17;;;;;;;4.95;1.60;;;26.50;92.30;;;;;;5018013;28;20036;-65
2023/12/22 08:20:44;;;;;;;6.43;1.38;;;27.10;92.10;;;;;;5018754;28;20025;-66
2023/12/22 08:23:12;;;;;;;6.10;2.17;;;27.30;91.70;;;;;;5017174;28;20080;-65
2023/12/22 08:25:41;;;;;;;6.30;1.60;;;27.10;92.00;;;;;;5018158;28;20068;-68
2023/12/22 08:28:08;;;;;;;5.63;1.50;;;26.60;92.70;;;;;;5019409;28;20376;-67
2023/12/22 08:30:35;;;;;;;7.68;1.88;;;25.80;93.30;;;;;;5019324;28;20070;-65
2023/12/22 08:33:02;;;;;;;7.18;1.70;;;24.90;94.60;;;;;;5017456;28;20124;-65
2023/12/22 08:35:30;;;;;;;6.82;1.77;;;24.60;95.10;;;;;;5020107;28;20487;-64
2023/12/22 08:37:57;;;;;;;9.75;1.83;;;24.50;95.50;;;;;;5016644;28;20025;-65
2023/12/22 08:40:26;;;;;;;5.28;1.30;;;24.40;95.40;;;;;;5029396;28;20507;-64
2023/12/22 08:42:59;;;;;;;7.85;1.60;;;24.20;95.70;;;;;;5015351;28;20078;-65
2023/12/22 08:45:30;;;;;;;11.43;1.88;;;23.80;96.00;;;;;;5017686;28;20049;-64
2023/12/22 08:47:58;;;;;;;6.43;2.00;;;23.40;96.80;;;;;;5020800;28;20396;-64
2023/12/22 08:50:25;;;;;;;9.15;2.00;;;23.10;97.10;;;;;;5016289;28;20037;-69
2023/12/22 08:52:52;;;;;;;5.10;1.40;;;22.90;97.60;;;;;;5016539;28;20044;-69
2023/12/22 08:55:19;;;;;;;5.75;1.30;;;22.60;98.20;;;;;;5016699;28;20123;-71
2023/12/22 08:57:46;;;;;;;6.75;1.80;;;22.50;98.40;;;;;;5017545;28;20084;-66
2023/12/22 09:00:14;;;;;;;7.88;1.70;;;22.40;99.00;;;;;;5016785;28;20025;-69
2023/12/22 09:02:42;;;;;;;9.77;1.90;;;22.30;99.10;;;;;;5016879;28;20026;-64
2023/12/22 09:05:09;;;;;;;7.38;1.83;;;22.10;99.70;;;;;;5014419;28;20339;-65
2023/12/22 09:07:36;;;;;;;5.05;1.38;;;21.90;99.90;;;;;;5015009;28;20041;-70
2023/12/22 09:10:04;;;;;;;10.77;2.85;;;21.80;99.90;;;;;;5011956;28;20076;-65
2023/12/22 09:12:31;;;;;;;5.45;1.58;;;21.70;99.90;;;;;;5015092;28;20075;-65
2023/12/22 09:14:58;;;;;;;4.28;1.83;;;21.50;99.90;;;;;;5012785;28;20045;-64
2023/12/22 09:17:28;;;;;;;9.43;2.38;;;21.40;99.90;;;;;;5014273;28;20057;-62
2023/12/22 09:19:55;;;;;;;7.20;1.85;;;21.30;99.90;;;;;;5011771;28;20099;-64
2023/12/22 09:22:22;;;;;;;5.35;1.60;;;21.20;99.90;;;;;;5013809;28;20041;-67
2023/12/22 09:24:50;;;;;;;8.90;1.90;;;21.20;99.90;;;;;;5012607;28;20187;-65
2023/12/22 09:27:17;;;;;;;7.93;2.30;;;21.00;99.90;;;;;;5011897;28;20037;-68
2023/12/22 09:29:44;;;;;;;7.07;2.22;;;20.90;99.90;;;;;;5013937;28;20102;-69
2023/12/22 09:32:11;;;;;;;7.45;2.15;;;20.80;99.90;;;;;;5012835;28;20025;-65
2023/12/22 09:34:39;;;;;;;5.40;1.95;;;20.80;99.90;;;;;;5078366;22;20061;-65
2023/12/22 09:37:06;;;;;;;13.10;2.22;;;20.70;99.90;;;;;;5034324;28;20477;-64
2023/12/22 09:39:33;;;;;;;11.10;2.22;;;20.80;99.90;;;;;;5030790;28;20249;-71
2023/12/22 09:42:01;;;;;;;6.82;2.28;;;20.70;99.90;;;;;;5034955;28;20029;-68
2023/12/22 09:44:35;;;;;;;8.38;2.40;;;20.70;99.90;;;;;;5032563;28;20608;-71
2023/12/22 09:47:06;;;;;;;7.40;1.70;;;20.70;99.90;;;;;;5032934;28;20017;-68
2023/12/22 09:49:35;;;;;;;6.20;2.13;;;20.60;99.90;;;;;;5031915;28;20394;-68
2023/12/22 09:52:03;;;;;;;5.35;1.83;;;20.60;99.90;;;;;;5032001;28;20192;-65
2023/12/22 09:54:32;;;;;;;10.85;3.05;;;20.50;99.90;;;;;;5030918;28;20055;-74
2023/12/22 09:57:01;;;;;;;8.63;2.17;;;20.50;99.90;;;;;;5032997;28;20072;-73
2023/12/22 09:59:29;;;;;;;7.85;2.38;;;20.40;99.90;;;;;;5031936;28;20037;-68
2023/12/22 10:01:56;;;;;;;6.57;1.95;;;20.40;99.90;;;;;;5032789;28;20124;-68
2023/12/22 10:04:23;;;;;;;8.52;2.50;;;20.40;99.90;;;;;;5033797;28;20450;-69
2023/12/22 10:06:51;;;;;;;8.15;3.17;;;20.40;99.90;;;;;;5036883;28;20072;-69
2023/12/22 10:09:19;;;;;;;6.32;2.28;;;20.40;99.90;;;;;;5033206;28;20602;-68
2023/12/22 10:11:49;;;;;;;8.25;2.35;;;20.40;99.90;;;;;;5031332;28;20554;-70
2023/12/22 10:14:22;;;;;;;9.48;2.42;;;20.30;99.90;;;;;;5032042;28;20024;-69
2023/12/22 10:16:50;;;;;;;8.17;1.70;;;20.30;99.90;;;;;;4680168;28;9999846;-65
2023/12/22 10:19:17;;;;;;;8.70;2.58;;;20.30;99.90;;;;;;5029998;28;20017;-66
2023/12/22 10:21:44;;;;;;;5.65;1.98;;;20.30;99.90;;;;;;5031916;28;20492;-64
2023/12/22 10:24:43;;;;;;;6.55;1.70;;;20.30;99.90;;;;;;5029318;28;20025;-67
2023/12/22 10:27:11;;;;;;;9.32;2.45;;;20.20;99.90;;;;;;5030748;28;20041;-65
2023/12/22 10:29:39;;;;;;;12.38;2.35;;;20.20;99.90;;;;;;5031372;28;20506;-64
2023/12/22 10:32:08;;;;;;;7.63;1.92;;;20.10;99.90;;;;;;5028920;28;20029;-69
2023/12/22 10:34:36;;;;;;;5.68;1.90;;;20.10;99.90;;;;;;5031599;28;20450;-65
2023/12/22 10:37:04;;;;;;;10.23;3.30;;;20.00;99.90;;;;;;5028365;28;20056;-68
2023/12/22 10:39:32;;;;;;;10.00;2.17;;;20.00;99.90;;;;;;5027463;28;20033;-69
2023/12/22 10:42:00;;;;;;;5.68;2.30;;;20.10;99.90;;;;;;5031651;28;20025;-64
2023/12/22 10:44:30;;;;;;;9.80;2.35;;;20.00;99.90;;;;;;5031570;28;20621;-67
2023/12/22 10:46:58;;;;;;;6.00;1.73;;;20.00;99.90;;;;;;5032783;28;20376;-67
2023/12/22 10:49:26;;;;;;;9.35;2.28;;;20.00;99.90;;;;;;5032398;28;20496;-64
2023/12/22 10:51:53;;;;;;;9.73;1.90;;;20.00;99.90;;;;;;5031987;28;20063;-68
2023/12/22 10:54:20;;;;;;;9.20;2.65;;;20.00;99.90;;;;;;5031465;28;20063;-64
2023/12/22 10:56:48;;;;;;;5.43;2.20;;;20.00;99.90;;;;;;5034380;28;20029;-68
2023/12/22 10:59:19;;;;;;;8.18;2.65;;;20.00;99.90;;;;;;5034678;28;20043;-67
2023/12/22 11:01:48;;;;;;;7.72;1.80;;;20.00;99.90;;;;;;5034872;28;20029;-69
2023/12/22 11:04:20;;;;;;;8.57;1.70;;;20.00;99.90;;;;;;5034680;28;20159;-64
2023/12/22 11:06:50;;;;;;;4.07;1.23;;;20.00;99.90;;;;;;5033611;28;20434;-64
2023/12/22 11:09:20;;;;;;;9.52;2.17;;;20.00;99.90;;;;;;5035661;28;20745;-68
2023/12/22 11:11:48;;;;;;;9.40;1.95;;;20.10;99.90;;;;;;5034883;28;20040;-65
2023/12/22 11:14:16;;;;;;;4.32;1.63;;;20.00;99.90;;;;;;5036114;28;20033;-64
2023/12/22 11:16:47;;;;;;;8.10;1.50;;;20.00;99.90;;;;;;5035627;28;20419;-68
2023/12/22 11:19:15;;;;;;;7.50;2.03;;;20.10;99.90;;;;;;5038029;28;20028;-68
2023/12/22 11:21:44;;;;;;;6.80;1.85;;;20.00;99.90;;;;;;5035420;28;20033;-64
2023/12/22 11:24:14;;;;;;;6.43;1.90;;;20.00;99.90;;;;;;5036030;28;20310;-67
2023/12/22 11:26:45;;;;;;;12.45;1.80;;;20.00;99.90;;;;;;5036053;28;20037;-69
2023/12/22 11:29:12;;;;;;;4.70;2.22;;;20.00;99.90;;;;;;5040131;28;20230;-69
2023/12/22 11:31:41;;;;;;;9.73;2.20;;;19.90;99.90;;;;;;5039291;28;20033;-64
2023/12/22 11:34:09;;;;;;;9.02;2.08;;;19.90;99.90;;;;;;5040489;28;20041;-64
2023/12/22 11:36:40;;;;;;;6.00;2.08;;;19.90;99.90;;;;;;5040101;28;20105;-69
2023/12/22 11:39:07;;;;;;;10.40;2.05;;;20.00;99.90;;;;;;5039838;28;20074;-67
2023/12/22 11:41:37;;;;;;;5.53;2.00;;;20.10;99.90;;;;;;5039928;28;20052;-64
2023/12/22 11:44:06;;;;;;;6.38;1.90;;;20.10;99.90;;;;;;5037716;28;20021;-69
2023/12/22 11:46:33;;;;;;;6.53;2.13;;;20.10;99.90;;;;;;5040951;28;20072;-64
2023/12/22 11:49:01;;;;;;;11.02;2.25;;;20.10;99.90;;;;;;5040628;28;20032;-64
2023/12/22 11:51:36;;;;;;;6.72;1.67;;;20.10;99.90;;;;;;5040003;28;20435;-66
2023/12/22 11:54:03;;;;;;;8.02;2.33;;;20.00;99.90;;;;;;5040277;28;20120;-68
2023/12/22 11:56:33;;;;;;;10.30;2.50;;;20.10;99.90;;;;;;5040817;28;20317;-68
2023/12/22 11:59:01;;;;;;;7.07;1.92;;;20.10;99.90;;;;;;5040215;28;20021;-66
2023/12/22 12:01:31;;;;;;;8.73;2.35;;;19.90;99.90;;;;;;5040664;28;20137;-69
2023/12/22 12:04:01;;;;;;;9.88;2.25;;;19.90;99.90;;;;;;5040843;28;20634;-68
2023/12/22 12:06:31;;;;;;;7.47;1.60;;;19.80;99.90;;;;;;5040049;28;20028;-65
2023/12/22 12:09:04;;;;;;;11.38;2.88;;;19.80;99.90;;;;;;5040516;28;20033;-69
2023/12/22 12:11:52;;;;;;;7.90;2.03;;;19.90;99.90;;;;;;5039435;28;20597;-65
2023/12/22 12:14:36;;;;;;;8.93;2.33;;;19.90;99.90;;;;;;5037661;28;20059;-67
2023/12/22 12:17:15;;;;;;;5.57;2.40;;;20.00;99.90;;;;;;5037171;28;20515;-69
2023/12/22 12:19:43;;;;;;;9.55;2.05;;;20.10;99.90;;;;;;5038350;28;20521;-65
2023/12/22 12:22:13;;;;;;;8.52;2.33;;;20.00;99.90;;;;;;5053650;28;20025;-66
2023/12/22 12:24:41;;;;;;;7.40;1.90;;;20.00;99.90;;;;;;5037488;28;20155;-66
2023/12/22 12:27:09;;;;;;;7.15;2.55;;;19.90;99.90;;;;;;5039216;28;20040;-66
2023/12/22 12:29:37;;;;;;;6.25;2.28;;;19.90;99.90;;;;;;5052831;28;20463;-68
2023/12/22 12:32:08;;;;;;;10.02;2.08;;;19.80;99.90;;;;;;5038909;28;20091;-71
2023/12/22 12:34:36;;;;;;;9.35;2.33;;;19.70;99.90;;;;;;5039941;28;20430;-66
2023/12/22 12:37:03;;;;;;;10.88;2.50;;;19.80;99.90;;;;;;5040205;28;20032;-66
2023/12/22 12:39:33;;;;;;;7.22;2.28;;;19.80;99.90;;;;;;5038919;28;20029;-67
2023/12/22 12:42:04;;;;;;;8.23;2.30;;;19.80;99.90;;;;;;5039937;28;20033;-68
2023/12/22 12:44:32;;;;;;;8.85;2.20;;;19.80;99.90;;;;;;5039354;28;20029;-66
2023/12/22 12:47:00;;;;;;;7.38;2.30;;;19.60;99.90;;;;;;5038863;28;20032;-68
2023/12/22 12:49:29;;;;;;;7.50;2.05;;;19.70;99.90;;;;;;5039814;28;20033;-67
2023/12/22 12:51:56;;;;;;;10.38;2.72;;;19.70;99.90;;;;;;5039893;28;20029;-66